Time;durP1;ratioP1;P1;durP2;ratioP2;P2;SDS_P1;SDS_P2;PMS_P1;PMS_P2;Temp;Humidity;BMP_temperature;BMP_pressure;BME280_temperature;BME280_humidity;BME280_pressure;Samples;Min_cycle;Max_cycle;Signal;HPM_P1;HPM_P2
2021/11/08 00:02:16;;;;;;;58.15;2.78;;;7.00;1.00;;;;;;5141617;27;20207;-68
2021/11/08 00:04:42;;;;;;;58.20;2.92;;;7.00;1.00;;;;;;5142455;27;20733;-68
2021/11/08 00:07:10;;;;;;;58.38;3.10;;;7.00;1.00;;;;;;5141347;27;20265;-68
2021/11/08 00:09:37;;;;;;;58.17;2.90;;;7.00;1.00;;;;;;5140476;27;20247;-68
2021/11/08 00:12:05;;;;;;;58.28;3.00;;;7.00;1.00;;;;;;5141537;27;20257;-68
2021/11/08 00:14:32;;;;;;;58.28;2.90;;;7.00;1.00;;;;;;5141663;27;20674;-68
2021/11/08 00:17:05;;;;;;;58.05;2.90;;;6.90;1.00;;;;;;5139772;27;20223;-68
2021/11/08 00:19:58;;;;;;;59.17;4.07;;;6.90;1.00;;;;;;5142279;27;20210;-67
2021/11/08 00:22:25;;;;;;;58.17;3.20;;;6.80;1.00;;;;;;5141315;27;20200;-68
2021/11/08 00:24:52;;;;;;;58.50;2.90;;;6.70;1.00;;;;;;5141880;27;20223;-68
2021/11/08 00:27:20;;;;;;;58.20;3.00;;;6.60;1.00;;;;;;5140188;27;20612;-68
2021/11/08 00:29:49;;;;;;;58.28;2.88;;;6.50;1.00;;;;;;5140503;27;20586;-68
2021/11/08 00:32:16;;;;;;;58.28;3.20;;;6.40;1.00;;;;;;5139932;27;20207;-68
2021/11/08 00:34:45;;;;;;;58.17;2.67;;;6.20;1.00;;;;;;5140481;27;20242;-68
2021/11/08 00:37:12;;;;;;;58.30;2.88;;;6.20;1.00;;;;;;5140262;27;20267;-67
2021/11/08 00:39:39;;;;;;;58.08;2.92;;;6.20;1.00;;;;;;5140491;27;20206;-68
2021/11/08 00:42:07;;;;;;;58.30;2.80;;;6.20;1.00;;;;;;5140288;27;20295;-68
2021/11/08 00:44:34;;;;;;;58.38;2.83;;;6.20;1.00;;;;;;5140728;27;20213;-68
2021/11/08 00:47:02;;;;;;;58.38;3.08;;;6.20;1.00;;;;;;5140231;27;20285;-68
2021/11/08 00:49:30;;;;;;;58.17;2.90;;;6.10;1.00;;;;;;5138242;27;20230;-68
2021/11/08 00:51:58;;;;;;;58.50;2.90;;;6.00;1.00;;;;;;5139286;27;20223;-68
2021/11/08 00:54:26;;;;;;;58.28;3.10;;;5.90;1.00;;;;;;5139889;27;20211;-68
2021/11/08 00:56:57;;;;;;;58.28;2.80;;;5.80;1.00;;;;;;5140304;27;20298;-68
2021/11/08 00:59:25;;;;;;;58.28;2.80;;;5.70;1.00;;;;;;5140107;27;20207;-68
2021/11/08 01:01:57;;;;;;;58.28;2.90;;;5.60;1.00;;;;;;5141067;27;20222;-68
2021/11/08 01:04:25;;;;;;;58.28;2.75;;;5.50;1.00;;;;;;5140706;27;20305;-68
2021/11/08 01:06:58;;;;;;;58.80;3.45;;;5.40;1.00;;;;;;5140241;27;20203;-68
2021/11/08 01:09:27;;;;;;;58.40;2.85;;;5.30;1.00;;;;;;5140563;27;20636;-68
2021/11/08 01:11:54;;;;;;;58.60;3.03;;;5.30;1.00;;;;;;5140082;27;20227;-68
2021/11/08 01:14:21;;;;;;;58.40;2.85;;;5.20;1.00;;;;;;5139746;27;20202;-68
2021/11/08 01:16:54;;;;;;;58.15;3.00;;;5.10;1.00;;;;;;5139805;27;20626;-68
2021/11/08 01:19:21;;;;;;;58.38;2.80;;;5.10;1.00;;;;;;5138585;27;20207;-68
2021/11/08 01:21:48;;;;;;;58.15;2.85;;;5.00;1.00;;;;;;5136462;27;20309;-68
2021/11/08 01:24:15;;;;;;;58.67;2.90;;;5.00;1.00;;;;;;5139160;27;20222;-68
2021/11/08 01:26:45;;;;;;;58.45;2.75;;;4.90;1.00;;;;;;5137289;27;20293;-68
2021/11/08 01:29:12;;;;;;;58.45;2.90;;;4.80;1.00;;;;;;5136965;27;20203;-67
2021/11/08 01:31:39;;;;;;;58.17;2.90;;;4.80;1.00;;;;;;5136789;27;20230;-68
2021/11/08 01:34:06;;;;;;;58.38;2.90;;;4.70;1.00;;;;;;5136764;27;20253;-68
2021/11/08 01:36:37;;;;;;;59.10;3.80;;;4.70;1.00;;;;;;5136012;27;20245;-68
2021/11/08 01:39:14;;;;;;;58.40;2.90;;;4.60;1.00;;;;;;5137082;27;20218;-68
2021/11/08 01:41:41;;;;;;;58.42;2.88;;;4.50;1.00;;;;;;5137381;27;20682;-68
2021/11/08 01:44:09;;;;;;;58.35;2.80;;;4.50;1.00;;;;;;5136766;27;20689;-68
2021/11/08 01:46:37;;;;;;;58.28;2.80;;;4.50;1.00;;;;;;5136852;27;20577;-68
2021/11/08 01:49:05;;;;;;;58.38;2.70;;;4.50;1.00;;;;;;5137182;27;20306;-68
2021/11/08 01:51:35;;;;;;;58.97;3.08;;;4.40;1.00;;;;;;5136443;27;20317;-68
2021/11/08 01:54:03;;;;;;;58.38;2.90;;;4.40;1.00;;;;;;5134904;27;20214;-68
2021/11/08 01:56:30;;;;;;;58.38;2.80;;;4.40;1.00;;;;;;5136589;27;20832;-68
2021/11/08 01:58:57;;;;;;;58.38;2.78;;;4.30;1.00;;;;;;5136626;27;20718;-68
2021/11/08 02:01:25;;;;;;;58.28;2.70;;;4.30;1.00;;;;;;5136447;27;20234;-68
2021/11/08 02:03:53;;;;;;;58.58;2.67;;;4.30;1.00;;;;;;5136049;27;20210;-68
2021/11/08 02:06:20;;;;;;;58.38;2.80;;;4.30;1.00;;;;;;5136009;27;20215;-68
2021/11/08 02:08:47;;;;;;;58.28;2.72;;;4.30;1.00;;;;;;5134499;27;20225;-67
2021/11/08 02:11:15;;;;;;;58.35;2.80;;;4.30;1.00;;;;;;5135596;27;20310;-68
2021/11/08 02:13:42;;;;;;;58.58;3.00;;;4.20;1.00;;;;;;5135988;27;20293;-68
2021/11/08 02:16:09;;;;;;;58.28;3.08;;;4.20;1.00;;;;;;5135387;27;20209;-68
2021/11/08 02:18:38;;;;;;;58.35;2.70;;;4.10;1.00;;;;;;5136501;27;20219;-68
2021/11/08 02:21:09;;;;;;;59.03;3.63;;;4.00;1.00;;;;;;5135815;27;20226;-68
2021/11/08 02:23:36;;;;;;;58.13;2.70;;;4.00;1.00;;;;;;5136030;27;20203;-68
2021/11/08 02:26:06;;;;;;;58.45;2.70;;;3.90;1.00;;;;;;5134205;27;20230;-68
2021/11/08 02:28:33;;;;;;;58.45;2.78;;;3.90;1.00;;;;;;5135591;27;20202;-68
2021/11/08 02:31:00;;;;;;;58.55;2.75;;;3.80;1.00;;;;;;5134848;27;20356;-68
2021/11/08 02:33:27;;;;;;;58.47;2.92;;;3.70;1.00;;;;;;5137464;27;20203;-68
2021/11/08 02:35:55;;;;;;;58.35;2.90;;;3.70;1.00;;;;;;5138304;27;20717;-68
2021/11/08 02:38:24;;;;;;;58.47;2.85;;;3.60;1.00;;;;;;5139426;27;20223;-68
2021/11/08 02:40:54;;;;;;;58.70;3.20;;;3.60;1.00;;;;;;5138819;27;20231;-68
2021/11/08 02:43:22;;;;;;;58.35;2.67;;;3.60;1.00;;;;;;5138670;27;20276;-68
2021/11/08 02:45:52;;;;;;;58.40;2.83;;;3.50;1.00;;;;;;5138394;27;20199;-67
2021/11/08 02:48:19;;;;;;;58.38;3.00;;;3.50;1.00;;;;;;5138723;27;20198;-68
2021/11/08 02:50:53;;;;;;;58.55;3.22;;;3.40;1.00;;;;;;5137903;27;20223;-67
2021/11/08 02:53:22;;;;;;;58.47;3.00;;;3.40;1.00;;;;;;5138651;27;20209;-68
2021/11/08 02:55:50;;;;;;;58.33;2.70;;;3.30;1.00;;;;;;5137776;27;20206;-68
2021/11/08 02:58:17;;;;;;;58.38;2.80;;;3.30;1.00;;;;;;5136473;27;20230;-68
2021/11/08 03:00:45;;;;;;;58.65;2.97;;;3.30;1.00;;;;;;5138615;27;20226;-68
2021/11/08 03:03:12;;;;;;;58.25;2.90;;;3.20;1.00;;;;;;5138075;27;20203;-68
2021/11/08 03:05:39;;;;;;;58.50;3.00;;;3.20;1.00;;;;;;5138321;27;20232;-68
2021/11/08 03:08:09;;;;;;;58.28;2.78;;;3.20;1.00;;;;;;5138491;27;20616;-68
2021/11/08 03:10:39;;;;;;;58.47;2.80;;;3.20;1.00;;;;;;5137334;27;20258;-68
2021/11/08 03:13:13;;;;;;;58.40;2.90;;;3.30;1.00;;;;;;5137805;27;20206;-68
2021/11/08 03:15:51;;;;;;;58.38;2.92;;;3.30;1.00;;;;;;5137592;27;20206;-67
2021/11/08 03:18:26;;;;;;;58.90;3.53;;;3.40;1.00;;;;;;5138399;27;20203;-68
2021/11/08 03:20:54;;;;;;;58.45;2.97;;;3.40;1.00;;;;;;5137779;27;20222;-68
2021/11/08 03:23:21;;;;;;;58.55;3.03;;;3.40;1.00;;;;;;5137416;27;20249;-68
2021/11/08 03:25:55;;;;;;;58.47;2.92;;;3.50;1.00;;;;;;5137984;27;20633;-68
2021/11/08 03:28:23;;;;;;;58.47;3.00;;;3.50;1.00;;;;;;5137747;27;20294;-67
2021/11/08 03:30:51;;;;;;;58.28;2.80;;;3.50;1.00;;;;;;5136398;27;20219;-67
2021/11/08 03:33:18;;;;;;;58.45;2.90;;;3.40;1.00;;;;;;5138112;27;20629;-68
2021/11/08 03:35:46;;;;;;;58.38;3.00;;;3.40;1.00;;;;;;5137328;27;20207;-68
2021/11/08 03:38:15;;;;;;;61.22;3.50;;;3.30;1.00;;;;;;5137465;27;20789;-68
2021/11/08 03:40:43;;;;;;;58.40;3.00;;;3.20;1.00;;;;;;5138237;27;20227;-67
2021/11/08 03:43:12;;;;;;;58.70;3.10;;;3.20;1.00;;;;;;5137790;27;20290;-67
2021/11/08 03:45:42;;;;;;;58.38;2.80;;;3.20;1.00;;;;;;5137204;27;20218;-68
2021/11/08 03:48:11;;;;;;;58.47;2.88;;;3.20;1.00;;;;;;5136928;27;20262;-68
2021/11/08 03:50:39;;;;;;;58.67;3.30;;;3.10;1.00;;;;;;5136874;27;20286;-68
2021/11/08 03:53:07;;;;;;;58.58;3.10;;;3.10;1.00;;;;;;5136779;27;20293;-68
2021/11/08 03:55:33;;;;;;;58.28;3.00;;;3.00;1.00;;;;;;5137125;27;20259;-68
2021/11/08 03:58:01;;;;;;;58.47;2.90;;;3.00;1.00;;;;;;5137495;27;20229;-67
2021/11/08 04:00:29;;;;;;;58.40;3.00;;;3.00;1.00;;;;;;5136861;27;20223;-68
2021/11/08 04:02:59;;;;;;;58.50;3.20;;;2.90;1.00;;;;;;5135800;27;20211;-68
2021/11/08 04:05:30;;;;;;;58.65;2.95;;;2.90;1.00;;;;;;5136583;27;20230;-68
2021/11/08 04:07:57;;;;;;;58.55;2.90;;;2.90;1.00;;;;;;5137527;27;20694;-68
2021/11/08 04:10:25;;;;;;;58.38;2.97;;;2.80;1.00;;;;;;5136142;27;20231;-68
2021/11/08 04:12:53;;;;;;;58.47;2.78;;;2.80;1.00;;;;;;5136220;27;20213;-67
2021/11/08 04:15:28;;;;;;;58.65;3.40;;;2.70;1.00;;;;;;5136148;27;20203;-68
2021/11/08 04:17:55;;;;;;;58.47;3.00;;;2.70;1.00;;;;;;5136438;27;20205;-68
2021/11/08 04:20:24;;;;;;;58.25;2.92;;;2.70;1.00;;;;;;5135988;27;20553;-68
2021/11/08 04:22:54;;;;;;;58.38;2.90;;;2.60;1.00;;;;;;5136288;27;20217;-68
2021/11/08 04:25:22;;;;;;;58.28;3.03;;;2.60;1.00;;;;;;5136050;27;20667;-68
2021/11/08 04:27:51;;;;;;;58.65;3.00;;;2.60;1.00;;;;;;5135411;27;20199;-68
2021/11/08 04:30:18;;;;;;;58.60;2.80;;;2.60;1.00;;;;;;5135985;27;20584;-67
2021/11/08 04:33:03;;;;;;;58.58;2.95;;;2.60;1.00;;;;;;5135599;27;20213;-68
2021/11/08 04:35:42;;;;;;;59.22;3.30;;;2.60;1.00;;;;;;5134313;27;20222;-68
2021/11/08 04:41:07;;;;;;;58.00;3.17;;;2.60;1.00;;;;;;5117274;27;20219;-68
2021/11/08 04:43:48;;;;;;;58.03;2.97;;;2.50;1.00;;;;;;5135494;27;20191;-67
2021/11/08 04:46:37;;;;;;;58.45;3.30;;;2.50;1.00;;;;;;5134989;27;20263;-67
2021/11/08 04:49:11;;;;;;;58.70;3.40;;;2.40;1.00;;;;;;5134993;27;20198;-68
2021/11/08 04:51:49;;;;;;;58.70;3.17;;;2.40;1.00;;;;;;5134904;27;20694;-68
2021/11/08 04:54:24;;;;;;;58.88;3.10;;;2.40;1.00;;;;;;5135218;27;20557;-67
2021/11/08 05:21:58;;;;;;;58.67;3.25;;;2.80;1.00;;;;;;5134689;27;20222;-68
2021/11/08 05:24:36;;;;;;;58.50;2.92;;;2.80;1.00;;;;;;5134942;27;20621;-68
2021/11/08 05:30:07;;;;;;;58.08;3.10;;;2.80;1.00;;;;;;5134316;27;20179;-68
2021/11/08 05:32:36;;;;;;;59.00;3.10;;;2.70;1.00;;;;;;5133926;27;20289;-68
2021/11/08 05:35:05;;;;;;;58.67;3.03;;;2.70;1.00;;;;;;5134371;27;20217;-68
2021/11/08 05:37:33;;;;;;;58.45;3.10;;;2.60;1.00;;;;;;5133981;27;20209;-67
2021/11/08 05:40:08;;;;;;;58.08;3.05;;;2.60;1.00;;;;;;5135170;27;20234;-68
2021/11/08 05:42:36;;;;;;;58.50;2.90;;;2.50;1.00;;;;;;5134579;27;20206;-68
2021/11/08 05:45:04;;;;;;;58.47;2.92;;;2.50;1.00;;;;;;5134106;27;20728;-68
2021/11/08 05:47:32;;;;;;;58.47;2.92;;;2.50;1.00;;;;;;5133923;27;20203;-68
2021/11/08 05:49:59;;;;;;;58.38;3.00;;;2.40;1.00;;;;;;5134081;27;20232;-68
2021/11/08 05:52:26;;;;;;;58.58;3.60;;;2.50;1.00;;;;;;5134359;27;20286;-68
2021/11/08 05:54:53;;;;;;;58.47;3.22;;;2.50;1.00;;;;;;5134489;27;20289;-68
2021/11/08 05:57:42;;;;;;;58.28;3.00;;;2.60;1.00;;;;;;5133791;27;20667;-68
2021/11/08 06:49:50;;;;;;;58.35;2.95;;;3.20;16.00;;;;;;5136050;27;20566;-67
2021/11/08 06:52:18;;;;;;;58.35;2.92;;;3.20;16.90;;;;;;5138467;27;20207;-67
2021/11/08 06:54:48;;;;;;;58.45;3.20;;;3.20;17.20;;;;;;5138117;27;20203;-67
2021/11/08 06:57:18;;;;;;;58.58;3.50;;;3.20;17.60;;;;;;5137739;27;20247;-67
2021/11/08 06:59:47;;;;;;;58.30;3.10;;;3.20;17.90;;;;;;5138437;27;20262;-67
2021/11/08 07:02:17;;;;;;;58.60;3.40;;;3.20;17.20;;;;;;5137815;27;20203;-67
2021/11/08 07:04:45;;;;;;;59.13;3.83;;;3.30;17.60;;;;;;5138564;27;20199;-67
2021/11/08 07:07:12;;;;;;;58.30;2.78;;;3.30;17.60;;;;;;5137549;27;20214;-67
2021/11/08 07:09:40;;;;;;;58.38;2.70;;;3.30;17.90;;;;;;5137941;27;20243;-67
2021/11/08 07:12:08;;;;;;;58.28;2.80;;;3.30;18.30;;;;;;5137772;27;20294;-67
2021/11/08 07:14:35;;;;;;;58.30;3.00;;;3.30;18.60;;;;;;5135728;27;20203;-67
2021/11/08 07:17:03;;;;;;;58.28;3.03;;;3.40;19.30;;;;;;5137384;27;20205;-67
2021/11/08 07:19:31;;;;;;;58.28;2.85;;;3.40;19.70;;;;;;5136948;27;20698;-67
2021/11/08 07:21:58;;;;;;;58.25;2.85;;;3.50;20.60;;;;;;5129934;27;20305;-67
2021/11/08 07:24:26;;;;;;;58.20;2.67;;;3.50;20.90;;;;;;5117599;28;20294;-67
2021/11/08 07:26:53;;;;;;;58.70;3.10;;;3.50;22.00;;;;;;5117267;28;20210;-67
2021/11/08 07:29:22;;;;;;;58.28;3.00;;;3.60;22.30;;;;;;5116797;27;20206;-67
2021/11/08 07:31:49;;;;;;;58.40;2.90;;;3.60;22.90;;;;;;5122325;27;20584;-67
2021/11/08 07:34:16;;;;;;;58.17;3.00;;;3.70;23.00;;;;;;5128997;27;20742;-67
2021/11/08 07:36:44;;;;;;;58.15;2.90;;;3.80;23.90;;;;;;5136996;27;20239;-67
2021/11/08 07:39:11;;;;;;;58.35;2.90;;;3.80;24.80;;;;;;5137457;27;20226;-67
2021/11/08 07:41:38;;;;;;;58.30;2.80;;;3.90;25.80;;;;;;5137710;27;20233;-67
2021/11/08 07:44:05;;;;;;;58.25;2.80;;;4.00;26.70;;;;;;5137357;27;20235;-67
2021/11/08 07:46:32;;;;;;;63.25;3.95;;;4.10;27.50;;;;;;5136360;27;20289;-67
2021/11/08 07:48:59;;;;;;;59.28;3.22;;;4.20;28.30;;;;;;5138075;27;20306;-67
2021/11/08 07:51:26;;;;;;;58.28;3.00;;;4.20;29.30;;;;;;5136893;27;20254;-67
2021/11/08 07:53:55;;;;;;;58.42;2.90;;;4.30;30.00;;;;;;5137139;27;20290;-67
2021/11/08 07:56:22;;;;;;;58.38;2.78;;;4.40;31.30;;;;;;5137112;27;20209;-67
2021/11/08 07:58:49;;;;;;;58.15;2.75;;;4.60;32.60;;;;;;5137702;27;20299;-67
2021/11/08 08:01:16;;;;;;;58.05;2.67;;;4.70;32.80;;;;;;5138392;27;20298;-67
2021/11/08 08:03:45;;;;;;;58.15;2.85;;;4.80;33.30;;;;;;5139286;27;20206;-68
2021/11/08 08:06:12;;;;;;;58.28;2.80;;;4.90;33.40;;;;;;5138079;27;20222;-67
2021/11/08 08:08:39;;;;;;;58.00;2.60;;;5.00;33.60;;;;;;5138014;27;20234;-67
2021/11/08 08:11:08;;;;;;;58.20;2.63;;;5.10;32.40;;;;;;5137754;27;20223;-68
2021/11/08 08:13:37;;;;;;;58.15;2.80;;;5.30;29.30;;;;;;5138008;27;20289;-68
2021/11/08 08:16:09;;;;;;;58.33;2.80;;;5.30;26.60;;;;;;5138639;27;20578;-68
2021/11/08 08:18:38;;;;;;;57.88;2.60;;;5.40;25.80;;;;;;5137880;27;20302;-68
2021/11/08 08:21:07;;;;;;;58.40;2.80;;;5.50;26.10;;;;;;5140244;27;20313;-68
2021/11/08 08:23:35;;;;;;;58.10;2.70;;;5.60;26.40;;;;;;5138005;27;20735;-67
2021/11/08 08:26:02;;;;;;;58.40;3.10;;;5.70;27.10;;;;;;5133673;27;20648;-68
2021/11/08 08:28:30;;;;;;;58.28;2.75;;;5.80;27.90;;;;;;5138249;27;20203;-68
2021/11/08 08:30:58;;;;;;;58.17;2.70;;;5.90;28.90;;;;;;5136600;27;20314;-68
2021/11/08 08:33:25;;;;;;;58.10;2.67;;;6.00;29.50;;;;;;5138473;27;20295;-68
2021/11/08 08:35:52;;;;;;;58.65;3.20;;;6.20;29.70;;;;;;5138384;27;20738;-68
2021/11/08 08:38:19;;;;;;;57.92;2.47;;;6.20;27.20;;;;;;5138808;27;20749;-68
2021/11/08 08:40:48;;;;;;;58.17;2.63;;;6.40;25.70;;;;;;5139335;27;20775;-68
2021/11/08 08:43:16;;;;;;;58.35;2.90;;;6.50;26.60;;;;;;5140916;27;20230;-68
2021/11/08 08:45:44;;;;;;;58.63;3.47;;;6.60;28.00;;;;;;5140085;27;20230;-68
2021/11/08 08:48:12;;;;;;;58.25;2.85;;;6.80;28.80;;;;;;5139061;27;20246;-68
2021/11/08 08:50:40;;;;;;;58.25;2.80;;;6.90;29.30;;;;;;5140266;27;20228;-68
2021/11/08 08:53:08;;;;;;;58.30;2.80;;;7.00;30.20;;;;;;5138964;27;20292;-68
2021/11/08 08:55:36;;;;;;;58.28;2.65;;;7.10;30.60;;;;;;5139866;27;20294;-69
2021/11/08 08:58:03;;;;;;;58.33;2.75;;;7.30;33.40;;;;;;5139292;27;20647;-68
2021/11/08 09:00:30;;;;;;;58.15;2.88;;;7.50;35.90;;;;;;5139463;27;20602;-69
2021/11/08 09:02:59;;;;;;;57.97;2.90;;;7.70;39.40;;;;;;5139471;27;20306;-68
2021/11/08 09:05:26;;;;;;;58.80;4.20;;;7.90;43.20;;;;;;5139995;27;20266;-68
2021/11/08 09:07:55;;;;;;;57.97;2.60;;;8.10;45.70;;;;;;5139706;27;20273;-68
2021/11/08 09:10:24;;;;;;;58.30;3.07;;;8.40;49.80;;;;;;5138797;27;20519;-68
2021/11/08 09:12:53;;;;;;;57.97;2.80;;;8.80;56.90;;;;;;5139195;27;20528;-69
2021/11/08 09:15:20;;;;;;;58.77;3.30;;;9.20;59.70;;;;;;5138488;27;20452;-68
2021/11/08 09:17:47;;;;;;;58.17;2.73;;;9.50;61.60;;;;;;5138339;27;20828;-69
2021/11/08 09:20:16;;;;;;;58.27;3.30;;;10.00;63.80;;;;;;5135532;27;20510;-69
2021/11/08 09:22:44;;;;;;;59.33;3.80;;;10.40;64.40;;;;;;5138466;27;20874;-69
2021/11/08 09:25:12;;;;;;;58.27;3.10;;;10.80;56.40;;;;;;5138954;27;20471;-69
2021/11/08 09:27:41;;;;;;;58.37;3.10;;;11.20;52.70;;;;;;5137673;27;20460;-69
2021/11/08 09:30:11;;;;;;;58.23;2.80;;;11.30;21.50;;;;;;5137922;27;20467;-69
2021/11/08 09:32:38;;;;;;;58.27;2.87;;;11.60;1.00;;;;;;5139872;27;20892;-69
2021/11/08 09:35:07;;;;;;;58.27;2.70;;;11.60;1.00;;;;;;5138043;27;20968;-69
2021/11/08 09:37:42;;;;;;;58.07;2.90;;;11.60;1.00;;;;;;5137572;27;20444;-69
2021/11/08 09:40:10;;;;;;;58.27;2.90;;;11.60;1.00;;;;;;5137678;27;20480;-69
2021/11/08 09:42:38;;;;;;;58.30;2.73;;;11.50;1.00;;;;;;5143706;27;20538;-69
2021/11/08 09:45:07;;;;;;;58.07;3.00;;;11.40;1.00;;;;;;5146346;27;20448;-69
2021/11/08 09:47:36;;;;;;;57.87;2.60;;;11.50;1.00;;;;;;5145390;27;20532;-69
2021/11/08 09:50:05;;;;;;;59.90;3.50;;;11.60;1.00;;;;;;5145018;27;20536;-69
2021/11/08 09:52:39;;;;;;;57.77;2.80;;;11.50;1.00;;;;;;5143611;27;20444;-69
2021/11/08 09:55:09;;;;;;;58.20;2.97;;;11.50;1.00;;;;;;5145754;27;20542;-69
2021/11/08 09:57:36;;;;;;;58.13;2.60;;;11.60;1.00;;;;;;5145495;27;20531;-69
2021/11/08 10:00:16;;;;;;;60.20;3.57;;;11.70;1.00;;;;;;5145322;27;20519;-69
2021/11/08 10:02:51;;;;;;;58.13;2.80;;;11.70;1.00;;;;;;5145678;27;20823;-69
2021/11/08 10:05:19;;;;;;;57.57;2.90;;;11.70;1.00;;;;;;5145202;27;20466;-69
2021/11/08 10:07:49;;;;;;;58.90;3.27;;;11.60;1.00;;;;;;5145733;27;20452;-69
2021/11/08 10:10:16;;;;;;;57.97;2.80;;;11.50;1.00;;;;;;5145049;27;20471;-69
2021/11/08 10:12:43;;;;;;;57.93;2.80;;;11.50;1.00;;;;;;5145429;27;20734;-69
2021/11/08 10:15:10;;;;;;;58.10;2.60;;;11.50;1.00;;;;;;5144646;27;20507;-69
2021/11/08 10:17:37;;;;;;;57.93;2.57;;;11.50;1.00;;;;;;5144791;27;20508;-68
2021/11/08 10:20:06;;;;;;;57.97;2.60;;;11.50;1.00;;;;;;5145394;27;20484;-69
2021/11/08 10:22:33;;;;;;;57.73;2.60;;;11.60;1.00;;;;;;5143694;27;20523;-69
2021/11/08 10:25:03;;;;;;;58.00;2.70;;;11.70;1.00;;;;;;5145971;27;20528;-69
2021/11/08 10:27:42;;;;;;;58.10;2.80;;;11.80;1.00;;;;;;5145506;27;20542;-68
2021/11/08 10:30:21;;;;;;;58.10;2.80;;;12.00;1.00;;;;;;5144648;27;20491;-69
2021/11/08 10:32:48;;;;;;;58.13;3.10;;;12.20;1.00;;;;;;5144637;27;20872;-69
2021/11/08 10:35:15;;;;;;;58.03;2.70;;;12.50;1.00;;;;;;5145081;27;20452;-69
2021/11/08 10:37:41;;;;;;;58.07;2.70;;;13.00;1.00;;;;;;5144072;27;20513;-68
2021/11/08 10:40:17;;;;;;;58.13;2.63;;;13.40;1.00;;;;;;5144382;27;20918;-69
2021/11/08 10:42:44;;;;;;;58.40;3.10;;;14.10;1.00;;;;;;5145720;27;20505;-69
2021/11/08 10:45:21;;;;;;;58.00;2.50;;;14.50;1.00;;;;;;5145153;27;20527;-69
2021/11/08 10:47:59;;;;;;;58.03;2.90;;;14.70;1.00;;;;;;5144526;27;20475;-69
2021/11/08 10:50:27;;;;;;;57.77;2.70;;;15.10;1.00;;;;;;5145122;27;20460;-69
2021/11/08 10:53:01;;;;;;;57.67;2.60;;;15.50;1.00;;;;;;5141241;27;20452;-67
2021/11/08 10:55:31;;;;;;;58.07;2.80;;;16.00;1.00;;;;;;5140913;27;20480;-67
2021/11/08 10:58:08;;;;;;;58.03;2.60;;;16.40;1.00;;;;;;5141729;27;20935;-66
2021/11/08 11:00:46;;;;;;;58.10;2.60;;;16.70;1.00;;;;;;5141200;27;20556;-66
2021/11/08 11:03:14;;;;;;;58.83;3.13;;;16.80;1.00;;;;;;5141395;27;20516;-66
2021/11/08 11:05:42;;;;;;;57.40;2.73;;;16.80;1.00;;;;;;5141339;27;20484;-66
2021/11/08 11:08:14;;;;;;;58.03;3.10;;;17.30;1.00;;;;;;5141435;27;20500;-70
2021/11/08 11:10:51;;;;;;;57.97;2.40;;;19.30;1.00;;;;;;5141670;27;20459;-70
2021/11/08 11:13:19;;;;;;;58.50;2.97;;;19.50;1.00;;;;;;5141389;27;20475;-69
2021/11/08 11:15:46;;;;;;;58.20;2.50;;;18.70;1.00;;;;;;5140640;27;20447;-69
2021/11/08 11:18:13;;;;;;;58.20;2.47;;;17.60;1.00;;;;;;5140967;27;20949;-66
2021/11/08 11:20:44;;;;;;;58.27;2.60;;;16.70;1.00;;;;;;5140300;27;20876;-69
2021/11/08 11:23:15;;;;;;;58.17;2.67;;;18.50;1.00;;;;;;5141782;27;20554;-69
2021/11/08 11:25:50;;;;;;;58.40;2.73;;;21.40;1.00;;;;;;5138808;27;20457;-69
2021/11/08 11:28:24;;;;;;;58.27;2.40;;;23.80;1.00;;;;;;5140926;27;20447;-67
2021/11/08 11:30:51;;;;;;;58.27;2.47;;;25.70;1.00;;;;;;5140314;27;20496;-67
2021/11/08 11:33:20;;;;;;;58.17;2.50;;;27.40;1.00;;;;;;5140550;27;20472;-67
2021/11/08 11:35:49;;;;;;;58.90;4.00;;;29.10;1.00;;;;;;5138784;27;20487;-66
2021/11/08 11:38:22;;;;;;;58.40;2.80;;;30.00;1.00;;;;;;5137214;27;20818;-66
2021/11/08 11:40:56;;;;;;;60.20;3.20;;;30.70;1.00;;;;;;5135796;27;20476;-66
2021/11/08 11:43:29;;;;;;;58.10;2.57;;;32.10;1.00;;;;;;5136302;27;20441;-66
2021/11/08 11:45:57;;;;;;;59.27;2.70;;;33.20;1.00;;;;;;5136665;27;20445;-66
2021/11/08 11:48:26;;;;;;;57.47;2.17;;;33.50;1.00;;;;;;5136841;27;21015;-67
2021/11/08 11:50:53;;;;;;;57.70;2.57;;;34.30;1.00;;;;;;5136786;27;20489;-66
2021/11/08 11:53:21;;;;;;;57.50;2.27;;;34.80;99.90;;;;;;5137598;27;20461;-66
2021/11/08 11:55:49;;;;;;;61.70;3.10;;;35.60;99.90;;;;;;5136839;27;20970;-66
2021/11/08 11:58:17;;;;;;;57.47;2.20;;;36.30;99.90;;;;;;5137399;27;20468;-67
2021/11/08 12:00:46;;;;;;;57.27;2.00;;;36.90;99.90;;;;;;5138743;27;20472;-67
2021/11/08 12:03:13;;;;;;;57.43;2.10;;;37.80;99.90;;;;;;5139055;27;20535;-67
2021/11/08 12:05:44;;;;;;;58.20;2.53;;;38.60;99.90;;;;;;5138059;27;20960;-67
2021/11/08 12:08:14;;;;;;;57.37;2.20;;;36.40;99.90;;;;;;5139218;27;20448;-67
2021/11/08 12:10:46;;;;;;;57.80;2.43;;;33.00;99.90;;;;;;5137305;27;20543;-67
2021/11/08 12:13:20;;;;;;;57.53;2.00;;;29.90;99.90;;;;;;5137177;27;20882;-67
2021/11/08 12:15:48;;;;;;;59.93;3.10;;;27.30;99.90;;;;;;5136230;27;20830;-66
2021/11/08 12:18:16;;;;;;;58.60;2.30;;;25.10;99.90;;;;;;5136261;27;20441;-66
2021/11/08 12:20:45;;;;;;;58.17;2.23;;;23.30;99.90;;;;;;5136576;27;20469;-66
2021/11/08 12:23:21;;;;;;;58.20;2.43;;;21.70;99.90;;;;;;5136753;27;20497;-66
2021/11/08 12:25:49;;;;;;;58.13;2.60;;;20.30;99.90;;;;;;5135393;27;20452;-69
2021/11/08 12:28:21;;;;;;;59.03;2.73;;;19.10;99.90;;;;;;5134567;27;20446;-69
2021/11/08 12:30:51;;;;;;;58.50;2.70;;;18.20;99.90;;;;;;5136934;27;20496;-69
2021/11/08 12:33:28;;;;;;;57.97;2.30;;;17.80;99.90;;;;;;5137220;27;20477;-69
2021/11/08 12:35:56;;;;;;;57.97;2.60;;;17.60;99.90;;;;;;5137890;27;20444;-69
2021/11/08 12:38:25;;;;;;;58.07;2.60;;;17.40;1.00;;;;;;5138625;27;20440;-69
2021/11/08 12:41:10;;;;;;;58.03;2.50;;;17.50;1.00;;;;;;5137967;27;20516;-69
2021/11/08 12:43:39;;;;;;;57.60;2.50;;;17.40;1.00;;;;;;5136987;27;20999;-69
2021/11/08 12:46:16;;;;;;;58.07;2.80;;;17.50;1.00;;;;;;5137854;27;20502;-69
2021/11/08 12:48:43;;;;;;;58.27;2.63;;;17.40;1.00;;;;;;5137895;27;20466;-69
2021/11/08 12:51:13;;;;;;;57.97;2.87;;;17.10;1.00;;;;;;5137957;27;20483;-68
2021/11/08 12:53:43;;;;;;;58.47;3.23;;;16.90;1.00;;;;;;5138800;27;20530;-68
2021/11/08 12:56:22;;;;;;;57.87;2.60;;;16.50;1.00;;;;;;5138425;27;20483;-69
2021/11/08 12:58:57;;;;;;;58.97;3.03;;;16.20;1.00;;;;;;5138972;27;20447;-67
2021/11/08 13:01:25;;;;;;;58.30;2.90;;;16.10;1.00;;;;;;5140998;27;20466;-69
2021/11/08 13:04:05;;;;;;;59.00;3.20;;;15.90;1.00;;;;;;5142226;27;21013;-69
2021/11/08 13:06:35;;;;;;;58.17;2.30;;;15.60;1.00;;;;;;5143134;27;20446;-69
2021/11/08 13:09:09;;;;;;;57.93;2.80;;;15.40;1.00;;;;;;5142693;27;20466;-67
2021/11/08 13:11:41;;;;;;;58.13;2.70;;;15.30;1.00;;;;;;5142410;27;20512;-67
2021/11/08 13:14:20;;;;;;;57.97;2.63;;;15.00;1.00;;;;;;5142098;27;20537;-69
2021/11/08 13:16:48;;;;;;;58.37;2.60;;;14.80;1.00;;;;;;5140042;27;20482;-69
2021/11/08 13:19:17;;;;;;;57.83;2.53;;;14.50;1.00;;;;;;5140708;27;20501;-69
2021/11/08 13:21:44;;;;;;;58.20;2.90;;;14.20;1.00;;;;;;5140945;27;20491;-68
2021/11/08 13:24:12;;;;;;;58.07;3.00;;;13.90;1.00;;;;;;5141651;27;20481;-69
2021/11/08 13:26:43;;;;;;;58.37;2.80;;;13.70;1.00;;;;;;5141586;27;20479;-67
2021/11/08 13:29:18;;;;;;;58.30;2.80;;;13.60;1.00;;;;;;5141647;27;20536;-68
2021/11/08 13:31:46;;;;;;;59.10;3.30;;;13.40;1.00;;;;;;5139846;27;20552;-68
2021/11/08 13:34:13;;;;;;;57.97;2.53;;;13.30;1.00;;;;;;5140433;27;20570;-68
2021/11/08 13:36:41;;;;;;;58.07;2.90;;;13.20;1.00;;;;;;5138504;27;20517;-68
2021/11/08 13:39:08;;;;;;;58.23;2.60;;;13.10;1.00;;;;;;5138733;27;20505;-68
2021/11/08 13:41:36;;;;;;;57.87;2.50;;;13.00;1.00;;;;;;5139011;27;20470;-68
2021/11/08 13:44:05;;;;;;;58.37;2.83;;;13.00;1.00;;;;;;5135794;27;20845;-68
2021/11/08 13:46:36;;;;;;;58.17;2.50;;;13.00;1.00;;;;;;5135984;27;20533;-68
2021/11/08 13:49:05;;;;;;;58.70;2.90;;;13.00;1.00;;;;;;5136684;27;20444;-68
2021/11/08 13:51:34;;;;;;;58.03;2.80;;;12.90;1.00;;;;;;5135791;27;20567;-68
2021/11/08 13:54:05;;;;;;;58.03;2.50;;;12.80;1.00;;;;;;5135872;27;20470;-68
2021/11/08 13:56:35;;;;;;;58.07;2.47;;;12.80;1.00;;;;;;5135556;27;20445;-68
2021/11/08 13:59:04;;;;;;;58.20;2.80;;;12.80;1.00;;;;;;5136079;27;20425;-68
2021/11/08 14:01:35;;;;;;;59.47;4.73;;;12.70;1.00;;;;;;5135268;27;20507;-68
2021/11/08 14:04:02;;;;;;;57.93;2.60;;;12.60;1.00;;;;;;5134148;27;20480;-68
2021/11/08 14:06:31;;;;;;;58.03;2.50;;;12.50;1.00;;;;;;5135347;27;20476;-68
2021/11/08 14:08:59;;;;;;;57.93;2.57;;;12.40;1.00;;;;;;5135704;27;20527;-68
2021/11/08 14:11:29;;;;;;;58.27;2.60;;;12.30;1.00;;;;;;5135553;27;20859;-68
2021/11/08 14:14:02;;;;;;;58.27;2.57;;;12.20;1.00;;;;;;5135905;27;20468;-68
2021/11/08 14:16:29;;;;;;;58.17;2.60;;;12.20;1.00;;;;;;5135798;27;20441;-68
2021/11/08 14:18:58;;;;;;;58.17;2.63;;;12.20;1.00;;;;;;5136455;27;20531;-68
2021/11/08 14:21:26;;;;;;;57.60;2.60;;;12.20;1.00;;;;;;5138023;27;20634;-68
2021/11/08 14:23:59;;;;;;;58.37;2.80;;;12.20;1.00;;;;;;5136580;27;20448;-68